• Join FlightAware (Why Join?)
  • Login
  • US Flag 
02:05PM EDT


 

Airport Tracker/Info


-or-


 

Live Flight TrackerFlight Track Log ✈ DAL3799 ✈ 02-Nov-2013 ✈ KMSP - KCVG

Flight Track Log - Related Links

Times and Time Zones

All times are in EDT time to prevent confusion due to time zone crossing. See the DAL3799 flight status page for this flight to view local times or setup timezone preferences in your user account.

Time Position Orientation Groundspeed Altitude Reporting Facility
EDT Latitude Longitude Course Direction KTS MPH feet Rate Location/Type
04:29PM 44.9000 -93.2500 254° West 163 188 2,600  Level Minneapolis TRACON
04:29PM 44.8894 -93.3019 254° West 195 224 4,100 2,220 Climbing Minneapolis Center
04:30PM 44.8478 -93.3689 229° Southwest 268 308 6,500 2,700 Climbing Minneapolis Center
04:32PM 44.7822 -93.3169 151° Southeast 294 338 9,700 2,580 Climbing Minneapolis Center
04:33PM 44.7161 -93.1878 126° Southeast 340 391 11,900 1,980 Climbing Minneapolis Center
04:34PM 44.6633 -93.0819 125° Southeast 366 421 13,800 1,800 Climbing Minneapolis Center
04:35PM 44.6008 -92.9589 125° Southeast 385 443 15,600 1,680 Climbing Minneapolis Center
04:36PM 44.5358 -92.8311 125° Southeast 400 460 17,300 1,440 Climbing Minneapolis Center
04:37PM 44.4542 -92.6725 126° Southeast 416 479 18,600 1,200 Climbing Minneapolis Center
04:38PM 44.3819 -92.5325 126° Southeast 436 502 19,900 1,200 Climbing Minneapolis Center
04:39PM 44.3094 -92.3864 125° Southeast 455 524 21,100 1,020 Climbing Minneapolis Center
04:40PM 44.2433 -92.2281 120° Southeast 470 541 22,100 1,020 Climbing Minneapolis Center
04:41PM 44.1744 -92.0656 121° Southeast 485 558 23,300 960 Climbing Minneapolis Center
04:42PM 44.1022 -91.9050 122° Southeast 490 564 24,200 960 Climbing Minneapolis Center
04:43PM 44.0156 -91.7056 121° Southeast 499 574 25,300 960 Climbing Minneapolis Center
04:44PM 43.9494 -91.5556 121° Southeast 506 582 26,200 840 Climbing Minneapolis Center
04:45PM 43.8617 -91.3975 128° Southeast 518 596 27,100 660 Climbing Minneapolis Center
04:46PM 43.7608 -91.2544 134° Southeast 521 600 27,600 660 Climbing Minneapolis Center
04:47PM 43.6350 -91.0794 135° Southeast 528 608 28,500 780 Climbing Minneapolis Center
04:48PM 43.5725 -90.9956 136° Southeast 532 612 28,900 660 Climbing Chicago Center
04:49PM 43.4686 -90.8514 135° Southeast 532 612 29,600 660 Climbing Chicago Center
04:50PM 43.3642 -90.7072 135° Southeast 533 613 30,300 660 Climbing Chicago Center
04:51PM 43.2606 -90.5647 135° Southeast 531 611 31,000 660 Climbing Chicago Center
04:52PM 43.1564 -90.4225 135° Southeast 530 610 31,700 660 Climbing Chicago Center
04:53PM 43.0314 -90.2558 136° Southeast 524 603 32,400 480 Climbing Chicago Center
04:54PM 42.9300 -90.1181 135° Southeast 518 596 32,800 240 Climbing Chicago Center
04:55PM 42.8258 -89.9783 135° Southeast 525 604 33,000 60 Climbing Chicago Center
04:56PM 42.7214 -89.8400 136° Southeast 532 612 33,000  Level Chicago Center
04:57PM 42.6153 -89.7003 136° Southeast 536 617 33,000  Level Chicago Center
04:58PM 42.4856 -89.5294 136° Southeast 543 625 33,000  Level Chicago Center
04:59PM 42.3778 -89.3883 136° Southeast 543 625 33,000  Level Chicago Center
05:00PM 42.2681 -89.2478 137° Southeast 546 628 33,000  Level Chicago Center
05:01PM 42.1608 -89.1072 136° Southeast 541 623 33,000  Level Chicago Center
05:02PM 42.0567 -88.9722 136° Southeast 543 625 33,000  Level Chicago Center
05:03PM 41.9272 -88.8036 136° Southeast 543 625 33,000  Level Chicago Center
05:04PM 41.8197 -88.6633 136° Southeast 542 624 33,000  Level Chicago Center
05:05PM 41.7125 -88.5261 136° Southeast 537 618 33,000 -60 Level Chicago Center
05:06PM 41.6081 -88.3906 136° Southeast 529 609 32,900 -480 Descending Chicago Center
05:07PM 41.5025 -88.2564 136° Southeast 529 609 32,100 -840 Descending Chicago Center
05:08PM 41.3828 -88.1031 136° Southeast 539 620 31,200 -840 Descending Chicago Center
05:09PM 41.2758 -87.9681 136° Southeast 531 611 30,400 -780 Descending Chicago Center
05:10PM 41.1708 -87.8353 136° Southeast 527 606 29,600 -720 Descending Chicago Center
05:11PM 41.0672 -87.7047 136° Southeast 521 600 29,000 -300 Descending Chicago Center
05:12PM 40.9639 -87.5731 136° Southeast 519 597 29,000  Level Chicago Center
05:13PM 40.8394 -87.4189 137° Southeast 516 594 29,000  Level Chicago Center
05:14PM 40.7347 -87.2908 137° Southeast 517 595 29,000  Level Chicago Center
05:15PM 40.6231 -87.1736 141° Southeast 519 597 29,000 -60 Level Chicago Center
05:16PM 40.5139 -87.0639 143° Southeast 516 594 28,900 -600 Descending Chicago Center
05:17PM 40.4033 -86.9525 142° Southeast 507 583 27,800 -1,260 Descending Chicago Center
05:18PM 40.2825 -86.8317 143° Southeast 461 531 26,300 -1,380 Descending Chicago Center
05:20PM 40.1897 -86.7389 143° Southeast 430 495 25,000 -1,320 Descending Chicago Center
05:21PM 40.0947 -86.6461 143° Southeast 427 491 23,600 -1,380 Descending Chicago Center
05:22PM 40.0019 -86.5550 143° Southeast 423 487 22,200 -1,380 Descending Chicago Center
05:23PM 39.9150 -86.4681 143° Southeast 404 465 20,800 -1,380 Descending Chicago Center
05:24PM 39.8278 -86.3803 142° Southeast 399 459 19,400 -1,500 Descending Chicago Center
05:25PM 39.7667 -86.2333 118° Southeast 395 455 18,000 -1,380 Descending Indianapolis TRACON
05:25PM 39.7564 -86.1922 108° East 396 456 17,400 -1,320 Descending Indianapolis Center
05:26PM 39.7125 -86.0625 114° Southeast 393 452 16,000 -1,560 Descending Indianapolis Center
05:27PM 39.6631 -85.9156 114° Southeast 373 429 14,300 -1,140 Descending Indianapolis Center
05:28PM 39.6217 -85.7936 114° Southeast 372 428 13,700 -900 Descending Indianapolis Center
05:29PM 39.5808 -85.6731 114° Southeast 368 423 12,500 -1,140 Descending Indianapolis Center
05:30PM 39.5400 -85.5547 114° Southeast 360 414 11,400 -780 Descending Indianapolis Center
05:31PM 39.4958 -85.4428 117° Southeast 353 406 11,000 -240 Descending Indianapolis Center
05:32PM 39.4400 -85.3447 126° Southeast 341 392 11,000  Level Indianapolis Center
05:33PM 39.3850 -85.2442 125° Southeast 341 392 11,000  Level Indianapolis Center
05:34PM 39.3200 -85.1264 125° Southeast 338 389 11,000  Level Indianapolis Center
05:35PM 39.2656 -85.0294 126° Southeast 336 387 11,000  Level Indianapolis Center
05:36PM 39.2114 -84.9322 126° Southeast 335 386 11,000 -420 Level Indianapolis Center
05:37PM 39.1606 -84.8397 125° Southeast 331 381 10,200 -1,440 Descending Indianapolis Center
05:38PM 39.1011 -84.7808 142° Southeast 297 342 8,100 -1,620 Descending Indianapolis Center
05:39PM 39.0225 -84.7797 179° South 285 328 7,000 -1,020 Descending Indianapolis Center
05:40PM 38.9494 -84.7803 180° South 271 312 6,100 -1,020 Descending Indianapolis Center
05:42PM 38.8692 -84.7814 181° South 258 297 5,000 -1,500 Descending Indianapolis Center
05:43PM 38.9500 -84.6667 48° Northeast 195 224 2,500 -1,440 Descending Cincinnati TRACON
05:44PM 39.0000 -84.6667 360° North 126 145 1,700 -780 Descending Cincinnati TRACON
05:45PM 39.0333 -84.6667 360° North 116 133 1,000 -720 Descending Cincinnati TRACON